createdAt,value
2023-10-06T00:00:57.583Z,8.56
2023-10-06T00:01:59.341Z,8.57
2023-10-06T00:03:06.448Z,8.41
2023-10-06T00:04:08.628Z,8.50
2023-10-06T00:05:14.628Z,8.52
2023-10-06T00:06:23.585Z,8.52
2023-10-06T00:07:26.135Z,8.50
2023-10-06T00:08:41.865Z,8.50
2023-10-06T00:09:44.870Z,8.48
2023-10-06T00:10:48.789Z,8.50
2023-10-06T00:11:51.673Z,8.48
2023-10-06T00:12:59.764Z,8.50
2023-10-06T00:14:20.246Z,8.48
2023-10-06T00:15:27.939Z,8.46
2023-10-06T00:16:40.465Z,8.47
2023-10-06T00:17:49.996Z,8.48
2023-10-06T00:18:54.165Z,8.45
2023-10-06T00:19:58.094Z,8.45
2023-10-06T00:21:08.467Z,8.47
2023-10-06T00:22:11.147Z,8.44
2023-10-06T00:23:16.115Z,8.47
2023-10-06T00:24:18.028Z,8.45
2023-10-06T00:25:29.119Z,8.30
2023-10-06T00:26:30.873Z,8.40
2023-10-06T00:27:32.901Z,8.41
2023-10-06T00:28:34.479Z,8.25
2023-10-06T00:29:38.264Z,8.33
2023-10-06T00:30:40.120Z,8.35
2023-10-06T00:31:42.282Z,8.19
2023-10-06T00:32:44.158Z,8.30
2023-10-06T00:33:46.401Z,8.29
2023-10-06T00:34:50.035Z,8.27
2023-10-06T00:35:52.261Z,8.27
2023-10-06T00:36:54.085Z,8.24
2023-10-06T00:37:59.062Z,8.05
2023-10-06T00:39:13.410Z,8.15
2023-10-06T00:40:21.672Z,8.10
2023-10-06T00:41:23.448Z,8.09
2023-10-06T00:42:27.780Z,7.87
2023-10-06T00:43:40.919Z,7.96
2023-10-06T00:44:46.483Z,7.92
2023-10-06T00:45:49.378Z,7.91
2023-10-06T00:46:53.596Z,7.88
2023-10-06T00:47:55.465Z,7.84
2023-10-06T00:49:00.503Z,7.81
2023-10-06T00:50:06.866Z,7.77
2023-10-06T00:51:14.240Z,7.75
2023-10-06T00:52:16.794Z,7.75
2023-10-06T00:53:21.747Z,7.72
2023-10-06T00:54:26.462Z,7.68
2023-10-06T00:55:31.737Z,7.68
2023-10-06T00:56:34.910Z,7.66
2023-10-06T00:57:37.957Z,7.66
2023-10-06T00:58:42.325Z,7.67
2023-10-06T00:59:44.800Z,7.63
2023-10-06T01:00:46.662Z,7.65
2023-10-06T01:01:48.440Z,7.68
2023-10-06T01:02:53.047Z,7.71
2023-10-06T01:04:09.661Z,7.71
2023-10-06T01:05:11.786Z,7.75
2023-10-06T01:06:16.670Z,7.74
2023-10-06T01:07:19.039Z,7.77
2023-10-06T01:08:22.377Z,7.79
2023-10-06T01:09:34.919Z,7.80
2023-10-06T01:10:36.776Z,7.85
2023-10-06T01:11:47.893Z,7.79
2023-10-06T01:12:53.031Z,7.79
2023-10-06T01:13:55.128Z,7.80
2023-10-06T01:15:10.653Z,7.76
2023-10-06T01:16:17.230Z,7.79
2023-10-06T01:17:19.640Z,7.77
2023-10-06T01:18:28.464Z,7.77
2023-10-06T01:19:34.431Z,7.80
2023-10-06T01:20:42.828Z,7.82
2023-10-06T01:21:50.070Z,7.76
2023-10-06T01:22:57.323Z,7.75
2023-10-06T01:24:01.733Z,7.74
2023-10-06T01:25:12.142Z,7.77
2023-10-06T01:26:14.420Z,7.68
2023-10-06T01:27:20.023Z,7.69
2023-10-06T01:28:24.545Z,7.68
2023-10-06T01:29:30.714Z,7.67
2023-10-06T01:30:34.743Z,7.69
2023-10-06T01:31:40.982Z,7.69
2023-10-06T01:32:46.281Z,7.68
2023-10-06T01:33:50.654Z,7.68
2023-10-06T01:34:52.385Z,7.67
2023-10-06T01:35:54.461Z,7.69
2023-10-06T01:36:57.289Z,7.68
2023-10-06T01:38:00.390Z,7.69
2023-10-06T01:39:16.945Z,7.69
2023-10-06T01:40:23.474Z,7.68
2023-10-06T01:41:27.759Z,7.69
2023-10-06T01:42:31.912Z,7.72
2023-10-06T01:43:34.560Z,7.71
2023-10-06T01:44:38.856Z,7.72
2023-10-06T01:45:46.255Z,7.74
2023-10-06T01:46:54.429Z,7.74
2023-10-06T01:48:19.036Z,7.71
2023-10-06T01:49:24.590Z,7.69
2023-10-06T01:50:28.430Z,7.67
2023-10-06T01:51:37.015Z,7.65
2023-10-06T01:52:41.867Z,7.65
2023-10-06T01:53:44.013Z,7.65
2023-10-06T01:54:46.262Z,7.66
2023-10-06T01:55:50.486Z,7.67
2023-10-06T01:56:55.167Z,7.67
2023-10-06T01:57:58.237Z,7.65
2023-10-06T01:59:00.230Z,7.65
2023-10-06T02:00:02.529Z,7.61
2023-10-06T02:02:14.163Z,7.48
2023-10-06T02:03:22.651Z,7.47
2023-10-06T02:04:26.737Z,7.44
2023-10-06T02:05:28.970Z,7.46
2023-10-06T02:06:33.795Z,7.47
2023-10-06T02:07:36.995Z,7.48
2023-10-06T02:08:44.485Z,7.49
2023-10-06T02:09:46.253Z,7.45
2023-10-06T02:10:49.041Z,7.25
2023-10-06T02:11:51.306Z,7.37
2023-10-06T02:12:53.425Z,7.39
2023-10-06T02:13:57.702Z,7.40
2023-10-06T02:14:59.823Z,7.39
2023-10-06T02:16:01.743Z,7.40
2023-10-06T02:17:07.537Z,7.43
2023-10-06T02:18:13.786Z,7.41
2023-10-06T02:19:18.915Z,7.41
2023-10-06T02:20:26.616Z,7.39
2023-10-06T02:21:30.649Z,7.36
2023-10-06T02:22:32.519Z,7.29
2023-10-06T02:23:38.554Z,7.09
2023-10-06T02:24:40.716Z,7.20
2023-10-06T02:25:42.708Z,7.19
2023-10-06T02:27:00.546Z,7.16
2023-10-06T02:28:06.364Z,7.14
2023-10-06T02:29:13.539Z,7.14
2023-10-06T02:30:20.477Z,7.11
2023-10-06T02:31:23.248Z,7.10
2023-10-06T02:32:30.605Z,7.11
2023-10-06T02:33:37.486Z,7.10
2023-10-06T02:34:40.452Z,7.08
2023-10-06T02:35:47.745Z,7.11
2023-10-06T02:36:49.744Z,7.10
2023-10-06T02:37:51.435Z,6.96
2023-10-06T02:38:53.562Z,7.06
2023-10-06T02:39:55.334Z,7.09
2023-10-06T02:40:58.977Z,6.98
2023-10-06T02:42:08.776Z,7.10
2023-10-06T02:43:21.989Z,7.11
2023-10-06T02:44:25.865Z,7.15
2023-10-06T02:45:38.421Z,7.17
2023-10-06T02:46:45.391Z,7.18
2023-10-06T02:47:50.828Z,7.19
2023-10-06T02:48:52.934Z,7.22
2023-10-06T02:49:56.598Z,7.24
2023-10-06T02:50:58.406Z,7.24
2023-10-06T02:52:01.758Z,7.24
2023-10-06T02:53:08.386Z,7.24
2023-10-06T02:54:19.100Z,7.26
2023-10-06T02:55:21.716Z,7.24
2023-10-06T02:56:29.974Z,7.24
2023-10-06T02:57:40.132Z,7.26
2023-10-06T02:58:43.277Z,7.28
2023-10-06T02:59:45.938Z,7.28
2023-10-06T03:00:51.480Z,7.30
2023-10-06T03:01:59.142Z,7.29
2023-10-06T03:03:04.774Z,7.27
2023-10-06T03:04:08.999Z,7.29
2023-10-06T03:05:14.091Z,7.30
2023-10-06T03:06:20.519Z,7.29
2023-10-06T03:07:25.446Z,7.27
2023-10-06T03:08:31.342Z,7.29
2023-10-06T03:09:39.822Z,7.28
2023-10-06T03:10:49.809Z,7.29
2023-10-06T03:11:51.676Z,7.30
2023-10-06T03:12:54.668Z,7.31
2023-10-06T03:13:59.866Z,7.28
2023-10-06T03:15:02.494Z,7.27
2023-10-06T03:16:11.752Z,7.27
2023-10-06T03:17:14.946Z,7.23
2023-10-06T03:18:18.535Z,7.22
2023-10-06T03:19:26.818Z,7.21
2023-10-06T03:20:41.135Z,7.19
2023-10-06T03:21:46.953Z,7.18
2023-10-06T03:22:53.081Z,7.19
2023-10-06T03:23:59.239Z,7.17
2023-10-06T03:25:01.631Z,7.15
2023-10-06T03:26:13.632Z,7.16
2023-10-06T03:27:16.884Z,7.17
2023-10-06T03:28:19.514Z,7.16
2023-10-06T03:29:30.069Z,7.16
2023-10-06T03:30:37.957Z,7.12
2023-10-06T03:31:46.190Z,7.12
2023-10-06T03:32:53.260Z,7.13
2023-10-06T03:33:55.923Z,7.11
2023-10-06T03:35:13.199Z,7.08
2023-10-06T03:36:17.982Z,7.09
2023-10-06T03:37:35.849Z,7.08
2023-10-06T03:38:38.509Z,7.09
2023-10-06T03:39:51.856Z,7.12
2023-10-06T03:40:53.514Z,7.09
2023-10-06T03:42:01.084Z,6.97
2023-10-06T03:43:07.870Z,7.06
2023-10-06T03:44:12.660Z,7.04
2023-10-06T03:45:28.208Z,6.97
2023-10-06T03:46:38.194Z,6.99
2023-10-06T03:47:40.145Z,6.97
2023-10-06T03:48:42.116Z,6.98
2023-10-06T03:49:44.094Z,7.00
2023-10-06T03:50:45.953Z,6.98
2023-10-06T03:51:52.752Z,6.97
2023-10-06T03:52:56.781Z,6.92
2023-10-06T03:53:58.378Z,6.77
2023-10-06T03:55:02.689Z,6.85
2023-10-06T03:56:04.596Z,6.89
2023-10-06T03:57:06.308Z,6.88
2023-10-06T03:58:08.992Z,6.68
2023-10-06T03:59:16.910Z,6.63
2023-10-06T04:00:20.675Z,6.71
2023-10-06T04:01:27.585Z,6.73
2023-10-06T04:02:39.774Z,6.73
2023-10-06T04:03:41.743Z,6.69
2023-10-06T04:04:43.550Z,6.66
2023-10-06T04:05:45.881Z,6.49
2023-10-06T04:06:49.012Z,6.57
2023-10-06T04:07:50.739Z,6.55
2023-10-06T04:08:53.853Z,6.35
2023-10-06T04:09:55.540Z,6.48
2023-10-06T04:11:00.117Z,6.48
2023-10-06T04:12:05.407Z,6.48
2023-10-06T04:13:09.425Z,6.49
2023-10-06T04:14:14.881Z,6.48
2023-10-06T04:15:19.157Z,6.48
2023-10-06T04:16:23.620Z,6.51
2023-10-06T04:17:25.360Z,6.50
2023-10-06T04:18:26.944Z,6.38
2023-10-06T04:19:28.806Z,6.50
2023-10-06T04:20:30.594Z,6.53
2023-10-06T04:21:32.373Z,6.53
2023-10-06T04:22:37.476Z,6.56
2023-10-06T04:23:42.726Z,6.55
2023-10-06T04:24:46.806Z,6.56
2023-10-06T04:25:48.671Z,6.57
2023-10-06T04:26:51.146Z,6.57
2023-10-06T04:27:53.335Z,6.58
2023-10-06T04:28:58.562Z,6.60
2023-10-06T04:30:00.446Z,6.63
2023-10-06T04:31:02.571Z,6.61
2023-10-06T04:32:09.187Z,6.58
2023-10-06T04:33:15.575Z,6.58
2023-10-06T04:34:17.252Z,6.60
2023-10-06T04:35:25.785Z,6.58
2023-10-06T04:36:28.590Z,6.56
2023-10-06T04:37:30.791Z,6.54
2023-10-06T04:38:32.854Z,6.52
2023-10-06T04:39:35.056Z,6.51
2023-10-06T04:40:40.267Z,6.52
2023-10-06T04:41:42.415Z,6.52
2023-10-06T04:42:44.284Z,6.53
2023-10-06T04:43:48.388Z,6.39
2023-10-06T04:44:56.092Z,6.50
2023-10-06T04:45:58.092Z,6.52
2023-10-06T04:47:02.958Z,6.53
2023-10-06T04:48:10.160Z,6.53
2023-10-06T04:49:14.136Z,6.54
2023-10-06T04:50:17.308Z,6.53
2023-10-06T04:51:19.732Z,6.56
2023-10-06T04:52:21.442Z,6.55
2023-10-06T04:53:23.857Z,6.53
2023-10-06T04:54:25.478Z,6.53
2023-10-06T04:55:27.529Z,6.54
2023-10-06T04:56:33.539Z,6.54
2023-10-06T04:57:35.206Z,6.57
2023-10-06T04:58:39.948Z,6.44
2023-10-06T04:59:42.068Z,6.49
2023-10-06T05:00:43.786Z,6.34
2023-10-06T05:01:46.652Z,6.42
2023-10-06T05:02:51.857Z,6.43
2023-10-06T05:03:54.949Z,6.40
2023-10-06T05:04:57.396Z,6.41
2023-10-06T05:06:10.619Z,6.38
2023-10-06T05:07:12.247Z,6.41
2023-10-06T05:08:16.799Z,6.27
2023-10-06T05:09:19.438Z,6.39
2023-10-06T05:10:26.977Z,6.41
2023-10-06T05:11:33.780Z,6.37
2023-10-06T05:12:38.271Z,6.33
2023-10-06T05:13:41.257Z,6.36
2023-10-06T05:14:46.973Z,6.37
2023-10-06T05:15:48.701Z,6.38
2023-10-06T05:16:52.377Z,6.23
2023-10-06T05:17:57.499Z,6.34
2023-10-06T05:18:59.189Z,6.38
2023-10-06T05:20:01.850Z,6.35
2023-10-06T05:21:03.992Z,6.37
2023-10-06T05:22:05.676Z,6.34
2023-10-06T05:23:16.024Z,6.37
2023-10-06T05:24:17.942Z,6.36
2023-10-06T05:25:22.064Z,6.39
2023-10-06T05:26:25.967Z,6.41
2023-10-06T05:27:27.704Z,6.39
2023-10-06T05:28:30.060Z,6.29
2023-10-06T05:29:32.969Z,6.39
2023-10-06T05:30:38.306Z,6.42
2023-10-06T05:31:40.226Z,6.44
2023-10-06T05:32:45.109Z,6.42
2023-10-06T05:33:47.181Z,6.42
2023-10-06T05:34:48.950Z,6.44
2023-10-06T05:35:53.235Z,6.29
2023-10-06T05:36:57.321Z,6.39
2023-10-06T05:37:59.561Z,6.43
2023-10-06T05:39:01.288Z,6.44
2023-10-06T05:40:05.177Z,6.29
2023-10-06T05:41:13.295Z,6.38
2023-10-06T05:42:17.198Z,6.41
2023-10-06T05:43:18.925Z,6.28
2023-10-06T05:44:22.965Z,6.38
2023-10-06T05:45:24.900Z,6.41
2023-10-06T05:46:26.725Z,6.42
2023-10-06T05:47:29.858Z,6.30
2023-10-06T05:48:31.879Z,6.38
2023-10-06T05:49:33.691Z,6.41
2023-10-06T05:50:36.790Z,6.26
2023-10-06T05:51:40.075Z,6.39
2023-10-06T05:52:41.849Z,6.43
2023-10-06T05:53:45.623Z,6.41
2023-10-06T05:54:47.590Z,6.44
2023-10-06T05:55:51.077Z,6.30
2023-10-06T05:56:54.579Z,6.43
2023-10-06T05:57:57.228Z,6.48
2023-10-06T05:58:58.965Z,6.51
2023-10-06T06:00:02.212Z,6.52
2023-10-06T06:01:07.749Z,6.53
2023-10-06T06:02:13.288Z,6.54
2023-10-06T06:03:17.666Z,6.56
2023-10-06T06:04:19.473Z,6.58
2023-10-06T06:05:22.181Z,6.61
2023-10-06T06:06:25.793Z,6.64
2023-10-06T06:07:28.301Z,6.62
2023-10-06T06:08:32.877Z,6.63
2023-10-06T06:09:34.971Z,6.65
2023-10-06T06:10:37.572Z,6.65
2023-10-06T06:11:39.417Z,6.68
2023-10-06T06:12:44.647Z,6.71
2023-10-06T06:13:52.768Z,6.72
2023-10-06T06:15:01.134Z,6.73
2023-10-06T06:16:03.740Z,6.77
2023-10-06T06:17:06.855Z,6.81
2023-10-06T06:18:10.175Z,6.83
2023-10-06T06:19:13.005Z,6.81
2023-10-06T06:20:18.512Z,6.81
2023-10-06T06:21:26.016Z,6.82
2023-10-06T06:22:30.967Z,6.79
2023-10-06T06:23:36.506Z,6.81
2023-10-06T06:24:39.427Z,6.82
2023-10-06T06:25:41.934Z,6.85
2023-10-06T06:26:44.615Z,6.86
2023-10-06T06:27:46.514Z,6.85
2023-10-06T06:28:48.407Z,6.86
2023-10-06T06:29:51.473Z,6.88
2023-10-06T06:30:55.690Z,6.90
2023-10-06T06:31:57.514Z,6.91
2023-10-06T06:32:59.165Z,6.95
2023-10-06T06:34:08.552Z,6.98
2023-10-06T06:35:14.918Z,7.00
2023-10-06T06:36:20.086Z,7.01
2023-10-06T06:37:22.040Z,7.03
2023-10-06T06:38:26.553Z,7.08
2023-10-06T06:39:28.722Z,7.11
2023-10-06T06:40:30.473Z,7.14
2023-10-06T06:41:32.692Z,7.01
2023-10-06T06:42:34.345Z,7.13
2023-10-06T06:43:36.587Z,7.17
2023-10-06T06:44:38.419Z,7.21
2023-10-06T06:45:42.254Z,7.25
2023-10-06T06:46:44.318Z,7.29
2023-10-06T06:47:48.405Z,7.31
2023-10-06T06:48:50.193Z,7.38
2023-10-06T06:49:52.985Z,7.41
2023-10-06T06:50:54.658Z,7.43
2023-10-06T06:51:59.852Z,7.49
2023-10-06T06:53:01.685Z,7.48
2023-10-06T06:54:03.350Z,7.37
2023-10-06T06:55:12.361Z,7.48
2023-10-06T06:56:14.372Z,7.53
2023-10-06T06:57:18.368Z,7.57
2023-10-06T06:58:20.038Z,7.60
2023-10-06T06:59:21.963Z,7.51
2023-10-06T07:00:23.916Z,7.62
2023-10-06T07:01:25.600Z,7.68
2023-10-06T07:02:27.353Z,7.60
2023-10-06T07:03:31.533Z,7.74
2023-10-06T07:04:35.486Z,7.80
2023-10-06T07:05:37.457Z,7.83
2023-10-06T07:06:39.140Z,7.87
2023-10-06T07:07:47.482Z,7.94
2023-10-06T07:08:51.442Z,7.95
2023-10-06T07:09:53.243Z,8.00
2023-10-06T07:10:55.077Z,8.06
2023-10-06T07:11:59.784Z,8.15
2023-10-06T07:13:04.048Z,8.05
2023-10-06T07:14:06.200Z,8.18
2023-10-06T07:15:15.935Z,8.23
2023-10-06T07:16:21.109Z,8.13
2023-10-06T07:17:24.175Z,8.29
2023-10-06T07:18:27.829Z,8.40
2023-10-06T07:19:30.197Z,8.41
2023-10-06T07:20:34.293Z,8.48
2023-10-06T07:21:36.056Z,8.53
2023-10-06T07:22:39.941Z,8.44
2023-10-06T07:23:41.595Z,8.57
2023-10-06T07:24:43.161Z,8.50
2023-10-06T07:25:44.868Z,8.65
2023-10-06T07:26:46.600Z,8.58
2023-10-06T07:27:50.134Z,8.74
2023-10-06T07:28:53.490Z,8.75
2023-10-06T07:29:56.103Z,8.82
2023-10-06T07:30:57.900Z,8.86
2023-10-06T07:32:02.112Z,8.92
2023-10-06T07:33:07.348Z,8.95
2023-10-06T07:34:11.138Z,9.00
2023-10-06T07:35:19.930Z,9.03
2023-10-06T07:36:21.803Z,9.10
2023-10-06T07:37:24.100Z,9.13
2023-10-06T07:38:25.771Z,9.19
2023-10-06T07:39:33.016Z,9.23
2023-10-06T07:40:37.022Z,9.30
2023-10-06T07:41:38.752Z,9.31
2023-10-06T07:42:47.652Z,9.38
2023-10-06T07:43:49.592Z,9.42
2023-10-06T07:44:51.478Z,9.48
2023-10-06T07:45:55.095Z,9.51
2023-10-06T07:46:58.253Z,9.58
2023-10-06T07:48:02.556Z,9.49
2023-10-06T07:49:05.726Z,9.63
2023-10-06T07:50:10.257Z,9.71
2023-10-06T07:51:14.469Z,9.73
2023-10-06T07:52:18.339Z,9.77
2023-10-06T07:53:20.142Z,9.80
2023-10-06T07:54:24.523Z,9.74
2023-10-06T07:55:26.201Z,9.86
2023-10-06T07:56:27.779Z,9.79
2023-10-06T07:57:32.359Z,9.96
2023-10-06T07:58:39.176Z,10.02
2023-10-06T07:59:40.901Z,10.06
2023-10-06T08:00:44.632Z,10.09
2023-10-06T08:01:49.615Z,10.12
2023-10-06T08:02:51.451Z,10.16
2023-10-06T08:03:54.952Z,10.08
2023-10-06T08:04:57.026Z,10.23
2023-10-06T08:06:02.349Z,10.28
2023-10-06T08:07:04.121Z,10.32
2023-10-06T08:08:05.770Z,10.24
2023-10-06T08:09:09.485Z,10.37
2023-10-06T08:10:19.713Z,10.40
2023-10-06T08:11:22.832Z,10.47
2023-10-06T08:12:24.820Z,10.51
2023-10-06T08:13:26.547Z,10.56
2023-10-06T08:14:29.529Z,10.48
2023-10-06T08:15:33.851Z,10.63
2023-10-06T08:16:38.136Z,10.74
2023-10-06T08:17:40.366Z,10.77
2023-10-06T08:18:44.472Z,10.72
2023-10-06T08:19:47.673Z,10.87
2023-10-06T08:20:49.754Z,10.89
2023-10-06T08:21:57.039Z,10.96
2023-10-06T08:22:58.796Z,11.01
2023-10-06T08:24:01.370Z,10.96
2023-10-06T08:25:07.035Z,11.14
2023-10-06T08:26:14.912Z,11.20
2023-10-06T08:27:22.258Z,11.21
2023-10-06T08:28:25.597Z,11.26
2023-10-06T08:29:31.065Z,11.34
2023-10-06T08:30:35.818Z,11.42
2023-10-06T08:31:39.904Z,11.48
2023-10-06T08:32:41.680Z,11.53
2023-10-06T08:33:47.314Z,11.61
2023-10-06T08:34:49.256Z,11.63
2023-10-06T08:35:56.074Z,11.57
2023-10-06T08:37:01.941Z,11.72
2023-10-06T08:38:03.939Z,11.80
2023-10-06T08:39:05.627Z,11.86
2023-10-06T08:40:09.035Z,11.91
2023-10-06T08:41:11.898Z,11.98
2023-10-06T08:42:16.667Z,12.02
2023-10-06T08:43:23.964Z,12.08
2023-10-06T08:44:26.046Z,12.11
2023-10-06T08:45:29.433Z,12.18
2023-10-06T08:46:36.196Z,12.20
2023-10-06T08:47:49.429Z,12.23
2023-10-06T08:48:57.359Z,12.25
2023-10-06T08:49:59.624Z,12.30
2023-10-06T08:51:08.163Z,12.30
2023-10-06T08:52:13.370Z,12.36
2023-10-06T08:53:16.460Z,12.38
2023-10-06T08:54:19.676Z,12.41
2023-10-06T08:55:23.694Z,12.39
2023-10-06T08:56:25.357Z,12.46
2023-10-06T08:57:30.316Z,12.45
2023-10-06T08:58:31.999Z,12.46
2023-10-06T08:59:34.176Z,12.39
2023-10-06T09:00:38.132Z,12.50
2023-10-06T09:01:39.940Z,12.56
2023-10-06T09:02:53.748Z,12.46
2023-10-06T09:04:10.640Z,12.56
2023-10-06T09:05:13.269Z,12.68
2023-10-06T09:06:17.326Z,12.71
2023-10-06T09:07:21.720Z,12.76
2023-10-06T09:08:23.563Z,12.78
2023-10-06T09:09:27.506Z,12.80
2023-10-06T09:10:32.026Z,12.84
2023-10-06T09:11:43.757Z,12.85
2023-10-06T09:12:47.157Z,12.94
2023-10-06T09:14:06.279Z,12.91
2023-10-06T09:15:16.088Z,13.03
2023-10-06T09:16:19.552Z,13.06
2023-10-06T09:17:41.862Z,13.04
2023-10-06T09:19:01.654Z,13.11
2023-10-06T09:20:13.425Z,13.22
2023-10-06T09:21:22.190Z,13.27
2023-10-06T09:22:30.317Z,13.22
2023-10-06T09:23:34.360Z,13.36
2023-10-06T09:24:36.048Z,13.43
2023-10-06T09:25:47.339Z,13.31
2023-10-06T09:26:50.160Z,13.46
2023-10-06T09:28:06.004Z,13.51
2023-10-06T09:29:11.176Z,13.61
2023-10-06T09:30:13.351Z,13.62
2023-10-06T09:31:15.077Z,13.69
2023-10-06T09:32:22.731Z,13.64
2023-10-06T09:33:45.651Z,13.73
2023-10-06T09:34:54.744Z,13.78
2023-10-06T09:36:12.974Z,13.78
2023-10-06T09:37:21.734Z,13.86
2023-10-06T09:38:27.517Z,13.91
2023-10-06T09:39:33.943Z,13.99
2023-10-06T09:40:45.349Z,14.01
2023-10-06T09:41:49.089Z,14.05
2023-10-06T09:42:52.147Z,14.08
2023-10-06T09:43:54.831Z,14.14
2023-10-06T09:45:16.842Z,14.19
2023-10-06T09:46:20.075Z,14.26
2023-10-06T09:47:24.235Z,14.26
2023-10-06T09:48:35.101Z,14.30
2023-10-06T09:49:38.729Z,14.38
2023-10-06T09:50:44.098Z,14.42
2023-10-06T09:51:47.145Z,14.45
2023-10-06T09:52:52.445Z,14.50
2023-10-06T09:53:55.170Z,14.54
2023-10-06T09:54:59.040Z,14.57
2023-10-06T09:56:04.019Z,14.63
2023-10-06T09:57:06.716Z,14.66
2023-10-06T09:58:09.633Z,14.73
2023-10-06T09:59:15.079Z,14.70
2023-10-06T10:00:19.607Z,14.79
2023-10-06T10:01:27.084Z,14.87
2023-10-06T10:02:33.759Z,14.90
2023-10-06T10:03:38.882Z,14.95
2023-10-06T10:04:41.710Z,14.98
2023-10-06T10:05:44.297Z,15.00
2023-10-06T10:06:46.275Z,15.05
2023-10-06T10:07:51.718Z,15.07
2023-10-06T10:08:53.558Z,15.09
2023-10-06T10:09:55.818Z,15.02
2023-10-06T10:11:03.172Z,15.14
2023-10-06T10:12:38.792Z,15.03
2023-10-06T10:14:19.858Z,15.12
2023-10-06T10:15:53.636Z,15.18
2023-10-06T10:17:08.289Z,15.30
2023-10-06T10:18:30.695Z,15.38
2023-10-06T10:19:32.900Z,15.46
2023-10-06T10:20:38.157Z,15.52
2023-10-06T10:21:43.001Z,15.58
2023-10-06T10:22:53.428Z,15.66
2023-10-06T10:24:18.650Z,15.71
2023-10-06T10:25:25.221Z,15.79
2023-10-06T10:26:28.671Z,15.84
2023-10-06T10:27:34.442Z,15.86
2023-10-06T10:28:38.860Z,15.90
2023-10-06T10:29:42.224Z,15.95
2023-10-06T10:31:01.405Z,15.90
2023-10-06T10:32:14.937Z,15.97
2023-10-06T10:33:31.021Z,16.03
2023-10-06T10:34:34.837Z,16.10
2023-10-06T10:35:36.879Z,16.16
2023-10-06T10:36:38.414Z,16.10
2023-10-06T10:38:08.691Z,16.18
2023-10-06T10:39:17.691Z,16.26
2023-10-06T10:40:48.091Z,16.22
2023-10-06T10:41:59.452Z,16.25
2023-10-06T10:43:07.461Z,16.32
2023-10-06T10:44:22.739Z,16.36
2023-10-06T10:45:32.930Z,16.39
2023-10-06T10:46:43.063Z,16.42
2023-10-06T10:47:45.007Z,16.44
2023-10-06T10:48:49.791Z,16.40
2023-10-06T10:49:52.746Z,16.43
2023-10-06T10:50:55.379Z,16.47
2023-10-06T10:52:03.406Z,16.44
2023-10-06T10:53:05.567Z,16.45
2023-10-06T10:54:12.038Z,16.46
2023-10-06T10:55:14.222Z,16.50
2023-10-06T10:56:39.061Z,16.42
2023-10-06T10:57:45.831Z,16.44
2023-10-06T10:58:49.352Z,16.45
2023-10-06T11:00:09.174Z,16.44
2023-10-06T11:01:39.164Z,16.48
2023-10-06T11:02:50.904Z,16.49
2023-10-06T11:04:11.170Z,16.48
2023-10-06T11:05:19.667Z,16.54
2023-10-06T11:06:21.482Z,16.53
2023-10-06T11:07:23.082Z,16.43
2023-10-06T11:08:25.358Z,16.58
2023-10-06T11:09:38.603Z,16.60
2023-10-06T11:10:42.892Z,16.53
2023-10-06T11:11:44.697Z,16.62
2023-10-06T11:12:46.849Z,16.60
2023-10-06T11:14:03.939Z,16.69
2023-10-06T11:15:24.060Z,16.77
2023-10-06T11:16:25.721Z,16.77
2023-10-06T11:17:33.726Z,16.71
2023-10-06T11:18:36.327Z,16.81
2023-10-06T11:19:39.381Z,16.85
2023-10-06T11:20:41.351Z,16.89
2023-10-06T11:21:50.097Z,16.96
2023-10-06T11:22:56.258Z,16.97
2023-10-06T11:23:59.420Z,16.98
2023-10-06T11:25:04.958Z,17.03
2023-10-06T11:26:07.500Z,17.04
2023-10-06T11:27:15.962Z,17.07
2023-10-06T11:28:17.818Z,17.10
2023-10-06T11:29:32.690Z,17.06
2023-10-06T11:30:37.078Z,17.14
2023-10-06T11:31:40.524Z,17.20
2023-10-06T11:32:45.566Z,17.24
2023-10-06T11:33:50.398Z,17.22
2023-10-06T11:34:52.505Z,17.27
2023-10-06T11:35:55.669Z,17.27
2023-10-06T11:37:03.152Z,17.30
2023-10-06T11:38:12.272Z,17.30
2023-10-06T11:39:14.234Z,17.33
2023-10-06T11:40:16.327Z,17.32
2023-10-06T11:41:28.614Z,17.31
2023-10-06T11:42:31.752Z,17.42
2023-10-06T11:43:33.410Z,17.43
2023-10-06T11:44:38.891Z,17.38
2023-10-06T11:45:44.693Z,17.49
2023-10-06T11:46:51.107Z,17.54
2023-10-06T11:47:59.743Z,17.54
2023-10-06T11:49:11.199Z,17.55
2023-10-06T11:50:27.863Z,17.57
2023-10-06T11:51:29.610Z,17.61
2023-10-06T11:52:33.393Z,17.56
2023-10-06T11:53:35.398Z,17.41
2023-10-06T11:54:40.281Z,17.58
2023-10-06T11:55:44.024Z,17.64
2023-10-06T11:56:51.658Z,17.54
2023-10-06T11:57:55.944Z,17.69
2023-10-06T11:58:58.058Z,17.71
2023-10-06T11:59:59.736Z,17.74
2023-10-06T12:01:01.400Z,17.70
2023-10-06T12:02:11.946Z,17.64
2023-10-06T12:03:45.662Z,17.76
2023-10-06T12:04:49.870Z,17.90
2023-10-06T12:05:56.509Z,17.87
2023-10-06T12:06:59.969Z,18.00
2023-10-06T12:08:05.965Z,18.05
2023-10-06T12:09:14.584Z,18.06
2023-10-06T12:10:18.730Z,18.10
2023-10-06T12:11:20.863Z,18.04
2023-10-06T12:12:25.152Z,18.13
2023-10-06T12:13:26.806Z,18.13
2023-10-06T12:14:29.764Z,18.08
2023-10-06T12:15:31.559Z,18.10
2023-10-06T12:16:33.297Z,18.18
2023-10-06T12:17:39.838Z,18.21
2023-10-06T12:18:45.065Z,18.25
2023-10-06T12:19:49.126Z,18.34
2023-10-06T12:20:50.867Z,18.34
2023-10-06T12:21:55.100Z,18.35
2023-10-06T12:22:57.131Z,18.43
2023-10-06T12:23:59.531Z,18.47
2023-10-06T12:25:01.720Z,18.53
2023-10-06T12:26:04.208Z,18.59
2023-10-06T12:27:06.045Z,18.57
2023-10-06T12:28:07.629Z,18.47
2023-10-06T12:29:09.294Z,18.60
2023-10-06T12:30:15.004Z,18.65
2023-10-06T12:31:16.798Z,18.71
2023-10-06T12:32:20.821Z,18.56
2023-10-06T12:33:22.693Z,18.66
2023-10-06T12:34:28.816Z,18.64
2023-10-06T12:35:31.552Z,18.72
2023-10-06T12:36:33.343Z,18.74
2023-10-06T12:37:35.573Z,18.63
2023-10-06T12:38:37.424Z,18.77
2023-10-06T12:39:39.210Z,18.85
2023-10-06T12:40:40.774Z,18.76
2023-10-06T12:41:47.640Z,18.89
2023-10-06T12:42:49.713Z,18.95
2023-10-06T12:43:51.338Z,19.00
2023-10-06T12:44:52.893Z,18.93
2023-10-06T12:45:54.653Z,19.06
2023-10-06T12:47:04.930Z,18.97
2023-10-06T12:48:09.069Z,19.11
2023-10-06T12:49:11.191Z,19.12
2023-10-06T12:50:18.743Z,19.15
2023-10-06T12:51:20.778Z,19.07
2023-10-06T12:52:22.524Z,19.15
2023-10-06T12:53:24.077Z,19.01
2023-10-06T12:54:26.982Z,19.14
2023-10-06T12:55:30.133Z,19.13
2023-10-06T12:56:32.669Z,19.16
2023-10-06T12:57:37.627Z,19.20
2023-10-06T12:58:39.639Z,19.27
2023-10-06T12:59:41.314Z,19.33
2023-10-06T13:00:43.317Z,19.26
2023-10-06T13:01:50.216Z,19.40
2023-10-06T13:02:53.292Z,19.44
2023-10-06T13:03:55.342Z,19.49
2023-10-06T13:04:58.734Z,19.48
2023-10-06T13:06:04.443Z,19.50
2023-10-06T13:07:06.208Z,19.50
2023-10-06T13:08:11.070Z,19.50
2023-10-06T13:09:21.557Z,19.53
2023-10-06T13:10:25.740Z,19.50
2023-10-06T13:11:32.969Z,19.59
2023-10-06T13:12:40.744Z,19.61
2023-10-06T13:13:44.399Z,19.63
2023-10-06T13:14:46.100Z,19.67
2023-10-06T13:15:47.898Z,19.64
2023-10-06T13:16:49.896Z,19.68
2023-10-06T13:17:51.885Z,19.71
2023-10-06T13:18:56.103Z,19.76
2023-10-06T13:19:57.782Z,19.73
2023-10-06T13:20:59.619Z,19.84
2023-10-06T13:22:01.354Z,19.87
2023-10-06T13:23:06.284Z,19.92
2023-10-06T13:24:08.388Z,19.91
2023-10-06T13:25:12.062Z,19.97
2023-10-06T13:26:23.813Z,19.99
2023-10-06T13:27:33.439Z,20.02
2023-10-06T13:28:35.444Z,20.06
2023-10-06T13:29:38.802Z,20.09
2023-10-06T13:30:40.581Z,20.11
2023-10-06T13:31:45.625Z,20.02
2023-10-06T13:34:14.367Z,20.18
2023-10-06T13:35:21.666Z,20.25
2023-10-06T13:36:24.024Z,20.23
2023-10-06T13:37:29.415Z,20.23
2023-10-06T13:38:35.933Z,20.22
2023-10-06T13:39:37.704Z,20.20
2023-10-06T13:40:39.476Z,20.22
2023-10-06T13:41:43.689Z,20.17
2023-10-06T13:42:47.653Z,20.18
2023-10-06T13:43:50.477Z,20.22
2023-10-06T13:44:52.387Z,20.15
2023-10-06T13:45:58.419Z,20.18
2023-10-06T13:47:06.687Z,20.19
2023-10-06T13:48:13.155Z,20.23
2023-10-06T13:49:15.557Z,20.21
2023-10-06T13:50:20.346Z,20.20
2023-10-06T13:51:24.141Z,20.15
2023-10-06T13:52:26.410Z,20.20
2023-10-06T13:53:28.957Z,20.22
2023-10-06T13:54:30.652Z,20.16
2023-10-06T13:55:33.873Z,20.02
2023-10-06T13:56:36.443Z,20.15
2023-10-06T13:57:40.610Z,20.15
2023-10-06T13:58:42.349Z,20.16
2023-10-06T13:59:44.244Z,20.17
2023-10-06T14:02:20.012Z,20.20
2023-10-06T14:03:22.795Z,20.21
2023-10-06T14:04:25.117Z,20.21
2023-10-06T14:05:32.444Z,20.20
2023-10-06T14:06:34.364Z,20.20
2023-10-06T14:07:39.548Z,20.22
2023-10-06T14:08:41.213Z,20.17
2023-10-06T14:09:42.930Z,20.17
2023-10-06T14:10:48.258Z,20.09
2023-10-06T14:11:51.302Z,20.08
2023-10-06T14:13:03.306Z,20.15
2023-10-06T14:14:24.253Z,20.13
2023-10-06T14:15:31.621Z,20.03
2023-10-06T14:16:34.208Z,20.04
2023-10-06T14:17:36.039Z,20.04
2023-10-06T14:18:41.406Z,20.04